sensor_id;sensor_type;location;lat;lon;timestamp;P1;durP1;ratioP1;P2;durP2;ratioP2
15665;SDS011;20725;51.196;3.510;2023-05-07T00:04:28;17.57;;;9.90;;
15665;SDS011;20725;51.196;3.510;2023-05-07T00:07:02;16.73;;;10.20;;
15665;SDS011;20725;51.196;3.510;2023-05-07T00:09:29;17.90;;;8.97;;
15665;SDS011;20725;51.196;3.510;2023-05-07T00:11:57;15.77;;;9.07;;
15665;SDS011;20725;51.196;3.510;2023-05-07T00:14:24;18.77;;;8.83;;
15665;SDS011;20725;51.196;3.510;2023-05-07T00:16:52;12.67;;;8.50;;
15665;SDS011;20725;51.196;3.510;2023-05-07T00:19:19;17.23;;;8.70;;
15665;SDS011;20725;51.196;3.510;2023-05-07T00:21:46;12.37;;;8.60;;
15665;SDS011;20725;51.196;3.510;2023-05-07T00:24:15;14.77;;;8.80;;
15665;SDS011;20725;51.196;3.510;2023-05-07T00:26:42;10.73;;;7.77;;
15665;SDS011;20725;51.196;3.510;2023-05-07T00:29:09;12.77;;;8.40;;
15665;SDS011;20725;51.196;3.510;2023-05-07T00:31:36;11.87;;;8.20;;
15665;SDS011;20725;51.196;3.510;2023-05-07T00:34:04;9.33;;;8.30;;
15665;SDS011;20725;51.196;3.510;2023-05-07T00:36:31;17.03;;;9.20;;
15665;SDS011;20725;51.196;3.510;2023-05-07T00:38:59;13.60;;;9.40;;
15665;SDS011;20725;51.196;3.510;2023-05-07T00:41:29;10.57;;;8.73;;
15665;SDS011;20725;51.196;3.510;2023-05-07T00:43:56;14.67;;;9.63;;
15665;SDS011;20725;51.196;3.510;2023-05-07T00:46:24;12.73;;;8.83;;
15665;SDS011;20725;51.196;3.510;2023-05-07T00:48:52;16.03;;;9.87;;
15665;SDS011;20725;51.196;3.510;2023-05-07T00:51:20;15.43;;;9.43;;
15665;SDS011;20725;51.196;3.510;2023-05-07T00:53:47;13.43;;;9.63;;
15665;SDS011;20725;51.196;3.510;2023-05-07T00:56:14;12.30;;;8.87;;
15665;SDS011;20725;51.196;3.510;2023-05-07T00:58:43;14.43;;;9.10;;
15665;SDS011;20725;51.196;3.510;2023-05-07T01:06:16;18.80;;;9.07;;
15665;SDS011;20725;51.196;3.510;2023-05-07T01:08:44;8.87;;;7.87;;
15665;SDS011;20725;51.196;3.510;2023-05-07T01:11:12;13.77;;;8.83;;
15665;SDS011;20725;51.196;3.510;2023-05-07T01:13:39;11.10;;;7.80;;
15665;SDS011;20725;51.196;3.510;2023-05-07T01:16:09;12.20;;;8.70;;
15665;SDS011;20725;51.196;3.510;2023-05-07T01:18:36;23.30;;;9.43;;
15665;SDS011;20725;51.196;3.510;2023-05-07T01:21:04;13.60;;;8.73;;
15665;SDS011;20725;51.196;3.510;2023-05-07T01:23:33;11.53;;;8.87;;
15665;SDS011;20725;51.196;3.510;2023-05-07T01:26:01;14.13;;;7.87;;
15665;SDS011;20725;51.196;3.510;2023-05-07T01:28:28;10.23;;;8.37;;
15665;SDS011;20725;51.196;3.510;2023-05-07T01:30:58;12.10;;;7.60;;
15665;SDS011;20725;51.196;3.510;2023-05-07T01:33:27;14.00;;;8.70;;
15665;SDS011;20725;51.196;3.510;2023-05-07T01:35:57;15.73;;;8.57;;
15665;SDS011;20725;51.196;3.510;2023-05-07T01:38:25;12.87;;;8.87;;
15665;SDS011;20725;51.196;3.510;2023-05-07T01:40:54;12.67;;;9.70;;
15665;SDS011;20725;51.196;3.510;2023-05-07T01:43:22;14.17;;;9.10;;
15665;SDS011;20725;51.196;3.510;2023-05-07T01:45:49;14.67;;;9.13;;
15665;SDS011;20725;51.196;3.510;2023-05-07T01:48:17;12.37;;;9.20;;
15665;SDS011;20725;51.196;3.510;2023-05-07T01:50:45;11.43;;;8.60;;
15665;SDS011;20725;51.196;3.510;2023-05-07T01:53:13;14.00;;;8.50;;
15665;SDS011;20725;51.196;3.510;2023-05-07T01:55:40;15.17;;;10.07;;
15665;SDS011;20725;51.196;3.510;2023-05-07T01:58:09;10.47;;;9.07;;
15665;SDS011;20725;51.196;3.510;2023-05-07T02:00:36;12.77;;;9.13;;
15665;SDS011;20725;51.196;3.510;2023-05-07T02:03:03;13.93;;;9.40;;
15665;SDS011;20725;51.196;3.510;2023-05-07T02:05:30;13.43;;;9.27;;
15665;SDS011;20725;51.196;3.510;2023-05-07T02:07:58;13.53;;;9.87;;
15665;SDS011;20725;51.196;3.510;2023-05-07T02:10:25;17.27;;;10.00;;
15665;SDS011;20725;51.196;3.510;2023-05-07T02:12:52;15.30;;;10.00;;
15665;SDS011;20725;51.196;3.510;2023-05-07T02:15:21;14.67;;;9.53;;
15665;SDS011;20725;51.196;3.510;2023-05-07T02:20:34;14.30;;;8.87;;
15665;SDS011;20725;51.196;3.510;2023-05-07T02:23:01;12.47;;;7.97;;
15665;SDS011;20725;51.196;3.510;2023-05-07T02:25:28;13.50;;;9.03;;
15665;SDS011;20725;51.196;3.510;2023-05-07T02:27:56;12.60;;;8.93;;
15665;SDS011;20725;51.196;3.510;2023-05-07T02:30:24;14.63;;;9.23;;
15665;SDS011;20725;51.196;3.510;2023-05-07T02:32:52;11.23;;;9.27;;
15665;SDS011;20725;51.196;3.510;2023-05-07T02:35:19;12.00;;;9.20;;
15665;SDS011;20725;51.196;3.510;2023-05-07T02:37:46;11.57;;;8.97;;
15665;SDS011;20725;51.196;3.510;2023-05-07T02:40:13;12.63;;;9.00;;
15665;SDS011;20725;51.196;3.510;2023-05-07T02:42:40;11.67;;;9.03;;
15665;SDS011;20725;51.196;3.510;2023-05-07T02:45:08;13.57;;;8.83;;
15665;SDS011;20725;51.196;3.510;2023-05-07T02:47:37;11.83;;;9.10;;
15665;SDS011;20725;51.196;3.510;2023-05-07T02:50:05;14.00;;;9.83;;
15665;SDS011;20725;51.196;3.510;2023-05-07T02:52:32;24.13;;;11.03;;
15665;SDS011;20725;51.196;3.510;2023-05-07T02:55:00;18.93;;;10.47;;
15665;SDS011;20725;51.196;3.510;2023-05-07T02:57:27;15.80;;;10.60;;
15665;SDS011;20725;51.196;3.510;2023-05-07T02:59:54;13.53;;;10.03;;
15665;SDS011;20725;51.196;3.510;2023-05-07T03:02:22;15.57;;;10.07;;
15665;SDS011;20725;51.196;3.510;2023-05-07T03:04:51;15.70;;;10.33;;
15665;SDS011;20725;51.196;3.510;2023-05-07T03:07:18;15.63;;;10.40;;
15665;SDS011;20725;51.196;3.510;2023-05-07T03:09:45;12.40;;;9.93;;
15665;SDS011;20725;51.196;3.510;2023-05-07T03:12:13;13.73;;;10.43;;
15665;SDS011;20725;51.196;3.510;2023-05-07T03:14:40;14.60;;;9.50;;
15665;SDS011;20725;51.196;3.510;2023-05-07T03:17:08;16.50;;;9.80;;
15665;SDS011;20725;51.196;3.510;2023-05-07T03:19:35;12.70;;;9.13;;
15665;SDS011;20725;51.196;3.510;2023-05-07T03:22:03;11.23;;;9.13;;
15665;SDS011;20725;51.196;3.510;2023-05-07T03:24:31;11.73;;;8.77;;
15665;SDS011;20725;51.196;3.510;2023-05-07T03:26:58;11.17;;;9.27;;
15665;SDS011;20725;51.196;3.510;2023-05-07T03:29:26;14.97;;;9.73;;
15665;SDS011;20725;51.196;3.510;2023-05-07T03:31:53;11.70;;;9.37;;
15665;SDS011;20725;51.196;3.510;2023-05-07T03:34:20;14.53;;;9.60;;
15665;SDS011;20725;51.196;3.510;2023-05-07T03:36:48;15.93;;;10.73;;
15665;SDS011;20725;51.196;3.510;2023-05-07T03:39:16;13.70;;;10.67;;
15665;SDS011;20725;51.196;3.510;2023-05-07T03:41:43;14.20;;;10.63;;
15665;SDS011;20725;51.196;3.510;2023-05-07T03:44:11;11.10;;;10.00;;
15665;SDS011;20725;51.196;3.510;2023-05-07T03:46:38;14.20;;;10.43;;
15665;SDS011;20725;51.196;3.510;2023-05-07T03:49:05;12.73;;;9.70;;
15665;SDS011;20725;51.196;3.510;2023-05-07T03:51:33;14.00;;;9.73;;
15665;SDS011;20725;51.196;3.510;2023-05-07T03:54:01;10.93;;;9.67;;
15665;SDS011;20725;51.196;3.510;2023-05-07T03:56:29;15.83;;;10.00;;
15665;SDS011;20725;51.196;3.510;2023-05-07T03:58:56;14.00;;;9.83;;
15665;SDS011;20725;51.196;3.510;2023-05-07T04:01:24;16.20;;;9.83;;
15665;SDS011;20725;51.196;3.510;2023-05-07T04:03:51;11.13;;;9.53;;
15665;SDS011;20725;51.196;3.510;2023-05-07T04:06:18;11.30;;;9.10;;
15665;SDS011;20725;51.196;3.510;2023-05-07T04:08:45;10.10;;;8.40;;
15665;SDS011;20725;51.196;3.510;2023-05-07T04:11:13;9.57;;;8.67;;
15665;SDS011;20725;51.196;3.510;2023-05-07T04:13:41;11.60;;;9.27;;
15665;SDS011;20725;51.196;3.510;2023-05-07T04:16:08;11.27;;;9.37;;
15665;SDS011;20725;51.196;3.510;2023-05-07T04:18:36;11.17;;;9.83;;
15665;SDS011;20725;51.196;3.510;2023-05-07T04:21:03;16.30;;;10.33;;
15665;SDS011;20725;51.196;3.510;2023-05-07T04:23:30;12.13;;;9.73;;
15665;SDS011;20725;51.196;3.510;2023-05-07T04:25:57;14.97;;;11.10;;
15665;SDS011;20725;51.196;3.510;2023-05-07T04:28:25;13.57;;;10.70;;
15665;SDS011;20725;51.196;3.510;2023-05-07T04:30:54;18.67;;;11.33;;
15665;SDS011;20725;51.196;3.510;2023-05-07T04:33:21;12.00;;;9.93;;
15665;SDS011;20725;51.196;3.510;2023-05-07T04:35:49;12.13;;;10.53;;
15665;SDS011;20725;51.196;3.510;2023-05-07T04:38:16;14.00;;;10.30;;
15665;SDS011;20725;51.196;3.510;2023-05-07T04:40:43;14.00;;;10.90;;
15665;SDS011;20725;51.196;3.510;2023-05-07T04:43:12;13.83;;;9.97;;
15665;SDS011;20725;51.196;3.510;2023-05-07T04:45:39;14.97;;;9.97;;
15665;SDS011;20725;51.196;3.510;2023-05-07T04:48:08;12.23;;;9.90;;
15665;SDS011;20725;51.196;3.510;2023-05-07T04:50:35;13.00;;;10.20;;
15665;SDS011;20725;51.196;3.510;2023-05-07T04:53:03;14.73;;;10.43;;
15665;SDS011;20725;51.196;3.510;2023-05-07T04:55:30;11.97;;;10.20;;
15665;SDS011;20725;51.196;3.510;2023-05-07T04:57:57;13.97;;;10.73;;
15665;SDS011;20725;51.196;3.510;2023-05-07T05:00:26;12.60;;;11.20;;
15665;SDS011;20725;51.196;3.510;2023-05-07T05:02:53;12.20;;;10.60;;
15665;SDS011;20725;51.196;3.510;2023-05-07T05:05:22;13.40;;;11.07;;
15665;SDS011;20725;51.196;3.510;2023-05-07T05:07:49;13.00;;;10.33;;
15665;SDS011;20725;51.196;3.510;2023-05-07T05:10:18;15.83;;;12.17;;
15665;SDS011;20725;51.196;3.510;2023-05-07T05:12:45;16.30;;;12.73;;
15665;SDS011;20725;51.196;3.510;2023-05-07T05:15:12;17.20;;;12.70;;
15665;SDS011;20725;51.196;3.510;2023-05-07T05:17:40;15.23;;;11.40;;
15665;SDS011;20725;51.196;3.510;2023-05-07T05:20:07;13.93;;;11.00;;
15665;SDS011;20725;51.196;3.510;2023-05-07T05:22:37;13.80;;;10.90;;
15665;SDS011;20725;51.196;3.510;2023-05-07T05:25:04;21.43;;;10.37;;
15665;SDS011;20725;51.196;3.510;2023-05-07T05:27:31;17.80;;;10.07;;
15665;SDS011;20725;51.196;3.510;2023-05-07T05:29:59;12.90;;;10.47;;
15665;SDS011;20725;51.196;3.510;2023-05-07T05:32:26;19.73;;;11.03;;
15665;SDS011;20725;51.196;3.510;2023-05-07T05:34:53;12.30;;;9.87;;
15665;SDS011;20725;51.196;3.510;2023-05-07T05:37:20;11.67;;;10.37;;
15665;SDS011;20725;51.196;3.510;2023-05-07T05:39:49;11.97;;;10.40;;
15665;SDS011;20725;51.196;3.510;2023-05-07T05:42:16;10.60;;;9.70;;
15665;SDS011;20725;51.196;3.510;2023-05-07T05:44:43;13.67;;;10.70;;
15665;SDS011;20725;51.196;3.510;2023-05-07T05:47:10;14.93;;;10.53;;
15665;SDS011;20725;51.196;3.510;2023-05-07T05:49:38;17.97;;;11.70;;
15665;SDS011;20725;51.196;3.510;2023-05-07T05:52:05;12.13;;;10.77;;
15665;SDS011;20725;51.196;3.510;2023-05-07T05:54:32;11.93;;;10.73;;
15665;SDS011;20725;51.196;3.510;2023-05-07T05:57:01;12.13;;;10.50;;
15665;SDS011;20725;51.196;3.510;2023-05-07T05:59:29;12.97;;;11.27;;
15665;SDS011;20725;51.196;3.510;2023-05-07T06:01:56;12.40;;;10.63;;
15665;SDS011;20725;51.196;3.510;2023-05-07T06:04:23;15.97;;;11.57;;
15665;SDS011;20725;51.196;3.510;2023-05-07T06:06:50;17.17;;;10.83;;
15665;SDS011;20725;51.196;3.510;2023-05-07T06:09:18;17.93;;;11.67;;
15665;SDS011;20725;51.196;3.510;2023-05-07T06:11:45;15.47;;;10.27;;
15665;SDS011;20725;51.196;3.510;2023-05-07T06:14:13;16.53;;;9.93;;
15665;SDS011;20725;51.196;3.510;2023-05-07T06:16:41;15.87;;;11.27;;
15665;SDS011;20725;51.196;3.510;2023-05-07T06:19:08;15.73;;;10.50;;
15665;SDS011;20725;51.196;3.510;2023-05-07T06:21:35;12.13;;;9.70;;
15665;SDS011;20725;51.196;3.510;2023-05-07T06:24:02;13.37;;;10.07;;
15665;SDS011;20725;51.196;3.510;2023-05-07T06:26:29;15.13;;;9.33;;
15665;SDS011;20725;51.196;3.510;2023-05-07T06:28:57;16.27;;;9.40;;
15665;SDS011;20725;51.196;3.510;2023-05-07T06:31:28;11.20;;;9.37;;
15665;SDS011;20725;51.196;3.510;2023-05-07T06:33:56;15.53;;;8.63;;
15665;SDS011;20725;51.196;3.510;2023-05-07T06:36:24;11.97;;;9.20;;
15665;SDS011;20725;51.196;3.510;2023-05-07T06:38:51;12.97;;;9.40;;
15665;SDS011;20725;51.196;3.510;2023-05-07T06:41:18;12.73;;;8.73;;
15665;SDS011;20725;51.196;3.510;2023-05-07T06:43:46;11.83;;;8.57;;
15665;SDS011;20725;51.196;3.510;2023-05-07T06:46:13;11.83;;;8.90;;
15665;SDS011;20725;51.196;3.510;2023-05-07T06:48:42;13.33;;;8.90;;
15665;SDS011;20725;51.196;3.510;2023-05-07T06:51:09;16.40;;;9.20;;
15665;SDS011;20725;51.196;3.510;2023-05-07T06:53:37;14.63;;;9.27;;
15665;SDS011;20725;51.196;3.510;2023-05-07T06:56:04;11.27;;;8.90;;
15665;SDS011;20725;51.196;3.510;2023-05-07T06:58:31;9.33;;;7.33;;
15665;SDS011;20725;51.196;3.510;2023-05-07T07:00:59;12.83;;;8.17;;
15665;SDS011;20725;51.196;3.510;2023-05-07T07:03:26;15.27;;;9.13;;
15665;SDS011;20725;51.196;3.510;2023-05-07T07:05:55;17.73;;;9.60;;
15665;SDS011;20725;51.196;3.510;2023-05-07T07:08:22;16.97;;;9.33;;
15665;SDS011;20725;51.196;3.510;2023-05-07T07:10:49;14.67;;;9.50;;
15665;SDS011;20725;51.196;3.510;2023-05-07T07:13:16;16.83;;;9.17;;
15665;SDS011;20725;51.196;3.510;2023-05-07T07:15:44;14.47;;;9.63;;
15665;SDS011;20725;51.196;3.510;2023-05-07T07:18:11;11.23;;;9.50;;
15665;SDS011;20725;51.196;3.510;2023-05-07T07:20:38;14.77;;;10.03;;
15665;SDS011;20725;51.196;3.510;2023-05-07T07:23:07;15.67;;;10.27;;
15665;SDS011;20725;51.196;3.510;2023-05-07T07:25:34;13.87;;;9.77;;
15665;SDS011;20725;51.196;3.510;2023-05-07T07:28:02;11.80;;;9.63;;
15665;SDS011;20725;51.196;3.510;2023-05-07T07:30:29;14.67;;;10.07;;
15665;SDS011;20725;51.196;3.510;2023-05-07T07:32:56;17.10;;;9.60;;
15665;SDS011;20725;51.196;3.510;2023-05-07T07:35:27;10.80;;;9.70;;
15665;SDS011;20725;51.196;3.510;2023-05-07T07:37:54;14.47;;;10.30;;
15665;SDS011;20725;51.196;3.510;2023-05-07T07:40:23;13.13;;;10.63;;
15665;SDS011;20725;51.196;3.510;2023-05-07T07:42:50;13.93;;;10.17;;
15665;SDS011;20725;51.196;3.510;2023-05-07T07:45:17;13.80;;;10.80;;
15665;SDS011;20725;51.196;3.510;2023-05-07T07:47:45;14.57;;;11.77;;
15665;SDS011;20725;51.196;3.510;2023-05-07T07:50:12;15.73;;;11.43;;
15665;SDS011;20725;51.196;3.510;2023-05-07T07:52:39;12.90;;;11.43;;
15665;SDS011;20725;51.196;3.510;2023-05-07T07:55:07;13.00;;;11.33;;
15665;SDS011;20725;51.196;3.510;2023-05-07T07:57:36;14.03;;;11.67;;
15665;SDS011;20725;51.196;3.510;2023-05-07T08:00:03;15.30;;;10.80;;
15665;SDS011;20725;51.196;3.510;2023-05-07T08:02:32;14.70;;;11.23;;
15665;SDS011;20725;51.196;3.510;2023-05-07T08:04:59;15.93;;;10.77;;
15665;SDS011;20725;51.196;3.510;2023-05-07T08:07:26;17.07;;;11.07;;
15665;SDS011;20725;51.196;3.510;2023-05-07T08:09:54;15.30;;;11.00;;
15665;SDS011;20725;51.196;3.510;2023-05-07T08:12:21;15.00;;;11.10;;
15665;SDS011;20725;51.196;3.510;2023-05-07T08:14:50;16.90;;;11.13;;
15665;SDS011;20725;51.196;3.510;2023-05-07T08:17:17;14.57;;;11.07;;
15665;SDS011;20725;51.196;3.510;2023-05-07T08:19:47;14.57;;;10.47;;
15665;SDS011;20725;51.196;3.510;2023-05-07T08:22:14;14.57;;;9.60;;
15665;SDS011;20725;51.196;3.510;2023-05-07T08:24:43;12.93;;;10.13;;
15665;SDS011;20725;51.196;3.510;2023-05-07T08:27:11;17.00;;;10.17;;
15665;SDS011;20725;51.196;3.510;2023-05-07T08:29:38;10.47;;;9.03;;
15665;SDS011;20725;51.196;3.510;2023-05-07T08:32:06;15.73;;;9.93;;
15665;SDS011;20725;51.196;3.510;2023-05-07T08:34:34;12.77;;;9.50;;
15665;SDS011;20725;51.196;3.510;2023-05-07T08:37:01;14.67;;;9.90;;
15665;SDS011;20725;51.196;3.510;2023-05-07T08:39:28;10.83;;;8.83;;
15665;SDS011;20725;51.196;3.510;2023-05-07T08:41:55;10.27;;;8.63;;
15665;SDS011;20725;51.196;3.510;2023-05-07T08:44:23;14.00;;;9.30;;
15665;SDS011;20725;51.196;3.510;2023-05-07T08:46:52;12.20;;;8.87;;
15665;SDS011;20725;51.196;3.510;2023-05-07T08:49:21;11.63;;;8.73;;
15665;SDS011;20725;51.196;3.510;2023-05-07T08:51:49;11.30;;;8.17;;
15665;SDS011;20725;51.196;3.510;2023-05-07T08:54:16;12.43;;;8.50;;
15665;SDS011;20725;51.196;3.510;2023-05-07T08:56:44;13.50;;;8.83;;
15665;SDS011;20725;51.196;3.510;2023-05-07T08:59:12;13.47;;;7.07;;
15665;SDS011;20725;51.196;3.510;2023-05-07T09:01:39;13.63;;;8.53;;
15665;SDS011;20725;51.196;3.510;2023-05-07T09:04:06;15.20;;;9.10;;
15665;SDS011;20725;51.196;3.510;2023-05-07T09:06:35;10.67;;;7.50;;
15665;SDS011;20725;51.196;3.510;2023-05-07T09:09:04;12.47;;;7.97;;
15665;SDS011;20725;51.196;3.510;2023-05-07T09:11:32;9.93;;;7.53;;
15665;SDS011;20725;51.196;3.510;2023-05-07T09:13:59;11.97;;;7.53;;
15665;SDS011;20725;51.196;3.510;2023-05-07T09:16:28;11.43;;;8.27;;
15665;SDS011;20725;51.196;3.510;2023-05-07T09:18:57;11.13;;;8.20;;
15665;SDS011;20725;51.196;3.510;2023-05-07T09:21:24;11.53;;;8.63;;
15665;SDS011;20725;51.196;3.510;2023-05-07T09:23:54;13.07;;;8.53;;
15665;SDS011;20725;51.196;3.510;2023-05-07T09:26:21;10.53;;;7.60;;
15665;SDS011;20725;51.196;3.510;2023-05-07T09:28:49;8.20;;;5.70;;
15665;SDS011;20725;51.196;3.510;2023-05-07T09:31:16;11.90;;;6.00;;
15665;SDS011;20725;51.196;3.510;2023-05-07T09:33:44;8.27;;;5.53;;
15665;SDS011;20725;51.196;3.510;2023-05-07T09:36:12;8.37;;;5.93;;
15665;SDS011;20725;51.196;3.510;2023-05-07T09:38:39;6.90;;;5.70;;
15665;SDS011;20725;51.196;3.510;2023-05-07T09:41:09;9.50;;;6.00;;
15665;SDS011;20725;51.196;3.510;2023-05-07T09:43:37;8.50;;;5.27;;
15665;SDS011;20725;51.196;3.510;2023-05-07T09:46:06;8.43;;;5.63;;
15665;SDS011;20725;51.196;3.510;2023-05-07T09:48:37;7.97;;;4.57;;
15665;SDS011;20725;51.196;3.510;2023-05-07T09:51:06;7.27;;;5.53;;
15665;SDS011;20725;51.196;3.510;2023-05-07T09:53:36;7.90;;;5.10;;
15665;SDS011;20725;51.196;3.510;2023-05-07T09:56:06;6.20;;;4.70;;
15665;SDS011;20725;51.196;3.510;2023-05-07T09:58:36;6.93;;;4.63;;
15665;SDS011;20725;51.196;3.510;2023-05-07T10:01:04;8.43;;;5.10;;
15665;SDS011;20725;51.196;3.510;2023-05-07T10:03:32;7.93;;;4.70;;
15665;SDS011;20725;51.196;3.510;2023-05-07T10:06:03;9.47;;;4.80;;
15665;SDS011;20725;51.196;3.510;2023-05-07T10:08:30;6.43;;;4.77;;
15665;SDS011;20725;51.196;3.510;2023-05-07T10:10:59;5.33;;;4.83;;
15665;SDS011;20725;51.196;3.510;2023-05-07T10:13:26;8.50;;;5.50;;
15665;SDS011;20725;51.196;3.510;2023-05-07T10:15:55;6.53;;;5.93;;
15665;SDS011;20725;51.196;3.510;2023-05-07T10:18:22;7.47;;;6.73;;
15665;SDS011;20725;51.196;3.510;2023-05-07T10:20:54;7.03;;;5.50;;
15665;SDS011;20725;51.196;3.510;2023-05-07T10:23:23;7.83;;;5.97;;
15665;SDS011;20725;51.196;3.510;2023-05-07T10:25:51;6.80;;;5.30;;
15665;SDS011;20725;51.196;3.510;2023-05-07T10:28:19;6.50;;;5.90;;
15665;SDS011;20725;51.196;3.510;2023-05-07T10:30:49;10.07;;;5.60;;
15665;SDS011;20725;51.196;3.510;2023-05-07T10:33:23;8.97;;;6.43;;
15665;SDS011;20725;51.196;3.510;2023-05-07T10:35:52;9.33;;;6.17;;
15665;SDS011;20725;51.196;3.510;2023-05-07T10:38:22;8.20;;;6.70;;
15665;SDS011;20725;51.196;3.510;2023-05-07T10:40:50;7.80;;;6.40;;
15665;SDS011;20725;51.196;3.510;2023-05-07T10:43:17;8.10;;;6.43;;
15665;SDS011;20725;51.196;3.510;2023-05-07T10:45:49;7.33;;;5.70;;
15665;SDS011;20725;51.196;3.510;2023-05-07T10:48:40;6.80;;;6.20;;
15665;SDS011;20725;51.196;3.510;2023-05-07T10:51:28;7.80;;;6.07;;
15665;SDS011;20725;51.196;3.510;2023-05-07T10:56:40;6.67;;;6.00;;
15665;SDS011;20725;51.196;3.510;2023-05-07T11:01:56;7.17;;;5.63;;
15665;SDS011;20725;51.196;3.510;2023-05-07T11:04:25;8.53;;;5.77;;
15665;SDS011;20725;51.196;3.510;2023-05-07T11:09:54;7.07;;;4.73;;
15665;SDS011;20725;51.196;3.510;2023-05-07T11:15:06;5.77;;;4.23;;
15665;SDS011;20725;51.196;3.510;2023-05-07T11:17:33;5.17;;;3.87;;
15665;SDS011;20725;51.196;3.510;2023-05-07T11:20:02;7.10;;;4.70;;
15665;SDS011;20725;51.196;3.510;2023-05-07T11:22:36;7.60;;;4.70;;
15665;SDS011;20725;51.196;3.510;2023-05-07T11:25:05;5.50;;;4.00;;
15665;SDS011;20725;51.196;3.510;2023-05-07T11:27:32;5.50;;;4.77;;
15665;SDS011;20725;51.196;3.510;2023-05-07T11:30:00;7.10;;;4.27;;
15665;SDS011;20725;51.196;3.510;2023-05-07T11:32:28;7.40;;;4.50;;
15665;SDS011;20725;51.196;3.510;2023-05-07T11:34:56;5.07;;;4.57;;
15665;SDS011;20725;51.196;3.510;2023-05-07T11:37:25;5.27;;;4.53;;
15665;SDS011;20725;51.196;3.510;2023-05-07T11:40:02;5.80;;;4.13;;
15665;SDS011;20725;51.196;3.510;2023-05-07T11:42:31;6.43;;;4.37;;
15665;SDS011;20725;51.196;3.510;2023-05-07T11:44:59;7.20;;;4.17;;
15665;SDS011;20725;51.196;3.510;2023-05-07T11:47:26;5.20;;;3.90;;
15665;SDS011;20725;51.196;3.510;2023-05-07T11:49:56;6.57;;;3.80;;
15665;SDS011;20725;51.196;3.510;2023-05-07T11:52:29;4.53;;;3.70;;
15665;SDS011;20725;51.196;3.510;2023-05-07T11:54:58;5.10;;;3.97;;
15665;SDS011;20725;51.196;3.510;2023-05-07T11:57:26;7.23;;;4.13;;
15665;SDS011;20725;51.196;3.510;2023-05-07T11:59:53;5.70;;;3.50;;
15665;SDS011;20725;51.196;3.510;2023-05-07T12:02:20;4.63;;;3.50;;
15665;SDS011;20725;51.196;3.510;2023-05-07T12:04:49;4.00;;;3.13;;
15665;SDS011;20725;51.196;3.510;2023-05-07T12:07:17;4.23;;;3.30;;
15665;SDS011;20725;51.196;3.510;2023-05-07T12:09:45;4.97;;;3.20;;
15665;SDS011;20725;51.196;3.510;2023-05-07T12:12:13;5.47;;;3.10;;
15665;SDS011;20725;51.196;3.510;2023-05-07T12:14:40;7.57;;;2.80;;
15665;SDS011;20725;51.196;3.510;2023-05-07T12:17:08;4.27;;;3.27;;
15665;SDS011;20725;51.196;3.510;2023-05-07T12:19:35;4.50;;;2.90;;
15665;SDS011;20725;51.196;3.510;2023-05-07T12:22:03;4.37;;;2.90;;
15665;SDS011;20725;51.196;3.510;2023-05-07T12:24:41;3.40;;;2.80;;
15665;SDS011;20725;51.196;3.510;2023-05-07T12:27:10;5.07;;;3.20;;
15665;SDS011;20725;51.196;3.510;2023-05-07T12:29:37;4.17;;;3.23;;
15665;SDS011;20725;51.196;3.510;2023-05-07T12:32:06;3.70;;;2.80;;
15665;SDS011;20725;51.196;3.510;2023-05-07T12:34:33;5.03;;;3.37;;
15665;SDS011;20725;51.196;3.510;2023-05-07T12:37:01;4.67;;;3.90;;
15665;SDS011;20725;51.196;3.510;2023-05-07T12:39:29;4.37;;;3.97;;
15665;SDS011;20725;51.196;3.510;2023-05-07T12:41:57;4.57;;;3.83;;
15665;SDS011;20725;51.196;3.510;2023-05-07T12:44:28;4.80;;;3.57;;
15665;SDS011;20725;51.196;3.510;2023-05-07T12:46:56;6.20;;;3.67;;
15665;SDS011;20725;51.196;3.510;2023-05-07T12:49:23;4.13;;;3.23;;
15665;SDS011;20725;51.196;3.510;2023-05-07T12:51:51;3.90;;;3.50;;
15665;SDS011;20725;51.196;3.510;2023-05-07T12:54:27;5.20;;;3.63;;
15665;SDS011;20725;51.196;3.510;2023-05-07T12:57:00;5.23;;;3.50;;
15665;SDS011;20725;51.196;3.510;2023-05-07T12:59:32;4.93;;;3.17;;
15665;SDS011;20725;51.196;3.510;2023-05-07T13:01:59;4.40;;;2.90;;
15665;SDS011;20725;51.196;3.510;2023-05-07T13:04:26;5.53;;;3.03;;
15665;SDS011;20725;51.196;3.510;2023-05-07T13:06:54;4.00;;;3.07;;
15665;SDS011;20725;51.196;3.510;2023-05-07T13:09:21;3.23;;;2.90;;
15665;SDS011;20725;51.196;3.510;2023-05-07T13:11:48;5.20;;;3.20;;
15665;SDS011;20725;51.196;3.510;2023-05-07T13:14:15;5.63;;;3.07;;
15665;SDS011;20725;51.196;3.510;2023-05-07T13:16:44;5.30;;;3.90;;
15665;SDS011;20725;51.196;3.510;2023-05-07T13:19:12;5.87;;;3.83;;
15665;SDS011;20725;51.196;3.510;2023-05-07T13:21:39;5.10;;;3.30;;
15665;SDS011;20725;51.196;3.510;2023-05-07T13:24:06;3.70;;;3.10;;
15665;SDS011;20725;51.196;3.510;2023-05-07T13:26:34;4.83;;;3.40;;
15665;SDS011;20725;51.196;3.510;2023-05-07T13:29:01;3.43;;;3.13;;
15665;SDS011;20725;51.196;3.510;2023-05-07T13:31:29;3.70;;;3.40;;
15665;SDS011;20725;51.196;3.510;2023-05-07T13:33:57;3.97;;;3.20;;
15665;SDS011;20725;51.196;3.510;2023-05-07T13:36:24;4.90;;;3.40;;
15665;SDS011;20725;51.196;3.510;2023-05-07T13:38:52;4.73;;;3.23;;
15665;SDS011;20725;51.196;3.510;2023-05-07T13:41:19;4.00;;;3.07;;
15665;SDS011;20725;51.196;3.510;2023-05-07T13:43:46;3.13;;;2.63;;
15665;SDS011;20725;51.196;3.510;2023-05-07T13:46:13;3.00;;;2.70;;
15665;SDS011;20725;51.196;3.510;2023-05-07T13:48:41;4.67;;;3.40;;
15665;SDS011;20725;51.196;3.510;2023-05-07T13:51:10;4.30;;;2.80;;
15665;SDS011;20725;51.196;3.510;2023-05-07T13:53:37;4.30;;;3.13;;
15665;SDS011;20725;51.196;3.510;2023-05-07T13:56:04;3.00;;;2.63;;
15665;SDS011;20725;51.196;3.510;2023-05-07T13:58:32;5.67;;;2.90;;
15665;SDS011;20725;51.196;3.510;2023-05-07T14:01:00;2.87;;;2.57;;
15665;SDS011;20725;51.196;3.510;2023-05-07T14:03:27;2.97;;;2.20;;
15665;SDS011;20725;51.196;3.510;2023-05-07T14:05:56;2.97;;;2.20;;
15665;SDS011;20725;51.196;3.510;2023-05-07T14:08:26;3.10;;;2.50;;
15665;SDS011;20725;51.196;3.510;2023-05-07T14:10:53;3.67;;;2.70;;
15665;SDS011;20725;51.196;3.510;2023-05-07T14:13:20;3.13;;;2.28;;
15665;SDS011;20725;51.196;3.510;2023-05-07T14:15:48;3.80;;;2.70;;
15665;SDS011;20725;51.196;3.510;2023-05-07T14:18:15;2.55;;;2.33;;
15665;SDS011;20725;51.196;3.510;2023-05-07T14:20:42;3.58;;;2.20;;
15665;SDS011;20725;51.196;3.510;2023-05-07T14:23:11;3.50;;;2.40;;
15665;SDS011;20725;51.196;3.510;2023-05-07T14:25:40;2.97;;;2.17;;
15665;SDS011;20725;51.196;3.510;2023-05-07T14:28:08;3.42;;;2.25;;
15665;SDS011;20725;51.196;3.510;2023-05-07T14:30:35;2.50;;;2.25;;
15665;SDS011;20725;51.196;3.510;2023-05-07T14:33:03;2.30;;;1.98;;
15665;SDS011;20725;51.196;3.510;2023-05-07T14:35:30;3.70;;;2.38;;
15665;SDS011;20725;51.196;3.510;2023-05-07T14:37:57;6.18;;;2.45;;
15665;SDS011;20725;51.196;3.510;2023-05-07T14:40:25;3.77;;;2.20;;
15665;SDS011;20725;51.196;3.510;2023-05-07T14:42:53;3.17;;;2.20;;
15665;SDS011;20725;51.196;3.510;2023-05-07T14:45:22;2.38;;;2.17;;
15665;SDS011;20725;51.196;3.510;2023-05-07T14:47:49;3.67;;;2.10;;
15665;SDS011;20725;51.196;3.510;2023-05-07T14:50:16;2.95;;;2.25;;
15665;SDS011;20725;51.196;3.510;2023-05-07T14:52:44;11.45;;;9.82;;
15665;SDS011;20725;51.196;3.510;2023-05-07T14:55:11;12.98;;;11.68;;
15665;SDS011;20725;51.196;3.510;2023-05-07T14:57:38;14.33;;;12.63;;
15665;SDS011;20725;51.196;3.510;2023-05-07T15:00:08;15.30;;;13.73;;
15665;SDS011;20725;51.196;3.510;2023-05-07T15:02:36;14.67;;;13.23;;